sensor_id;sensor_type;location;lat;lon;timestamp;P1;durP1;ratioP1;P2;durP2;ratioP2
72493;SDS011;60520;49.182;-0.348;2024-01-15T00:00:37;4.38;;;3.13;;
72493;SDS011;60520;49.182;-0.348;2024-01-15T00:03:04;4.15;;;3.15;;
72493;SDS011;60520;49.182;-0.348;2024-01-15T00:05:31;4.05;;;3.25;;
72493;SDS011;60520;49.182;-0.348;2024-01-15T00:07:59;4.25;;;3.25;;
72493;SDS011;60520;49.182;-0.348;2024-01-15T00:10:26;3.60;;;2.97;;
72493;SDS011;60520;49.182;-0.348;2024-01-15T00:12:53;4.28;;;3.20;;
72493;SDS011;60520;49.182;-0.348;2024-01-15T00:15:21;4.78;;;3.30;;
72493;SDS011;60520;49.182;-0.348;2024-01-15T00:17:49;4.38;;;3.55;;
72493;SDS011;60520;49.182;-0.348;2024-01-15T00:20:16;4.65;;;3.50;;
72493;SDS011;60520;49.182;-0.348;2024-01-15T00:22:43;4.38;;;3.13;;
72493;SDS011;60520;49.182;-0.348;2024-01-15T00:25:10;3.90;;;3.20;;
72493;SDS011;60520;49.182;-0.348;2024-01-15T00:27:37;4.35;;;3.33;;
72493;SDS011;60520;49.182;-0.348;2024-01-15T00:30:05;4.50;;;3.25;;
72493;SDS011;60520;49.182;-0.348;2024-01-15T00:32:33;4.13;;;3.28;;
72493;SDS011;60520;49.182;-0.348;2024-01-15T00:35:00;4.43;;;3.33;;
72493;SDS011;60520;49.182;-0.348;2024-01-15T00:37:28;4.65;;;3.47;;
72493;SDS011;60520;49.182;-0.348;2024-01-15T00:39:55;4.07;;;3.25;;
72493;SDS011;60520;49.182;-0.348;2024-01-15T00:42:22;4.60;;;3.45;;
72493;SDS011;60520;49.182;-0.348;2024-01-15T00:44:49;4.38;;;3.40;;
72493;SDS011;60520;49.182;-0.348;2024-01-15T00:47:17;4.35;;;3.50;;
72493;SDS011;60520;49.182;-0.348;2024-01-15T00:49:46;4.40;;;3.17;;
72493;SDS011;60520;49.182;-0.348;2024-01-15T00:52:13;4.15;;;3.35;;
72493;SDS011;60520;49.182;-0.348;2024-01-15T00:54:40;5.32;;;3.70;;
72493;SDS011;60520;49.182;-0.348;2024-01-15T00:57:07;4.60;;;3.40;;
72493;SDS011;60520;49.182;-0.348;2024-01-15T00:59:34;4.47;;;3.33;;
72493;SDS011;60520;49.182;-0.348;2024-01-15T01:02:02;4.40;;;3.28;;
72493;SDS011;60520;49.182;-0.348;2024-01-15T01:04:29;5.38;;;3.70;;
72493;SDS011;60520;49.182;-0.348;2024-01-15T01:06:57;5.05;;;3.40;;
72493;SDS011;60520;49.182;-0.348;2024-01-15T01:09:25;4.20;;;3.42;;
72493;SDS011;60520;49.182;-0.348;2024-01-15T01:11:54;4.90;;;3.53;;
72493;SDS011;60520;49.182;-0.348;2024-01-15T01:14:20;5.70;;;3.60;;
72493;SDS011;60520;49.182;-0.348;2024-01-15T01:16:47;4.88;;;3.58;;
72493;SDS011;60520;49.182;-0.348;2024-01-15T01:19:14;4.00;;;3.25;;
72493;SDS011;60520;49.182;-0.348;2024-01-15T01:21:41;5.53;;;3.53;;
72493;SDS011;60520;49.182;-0.348;2024-01-15T01:24:10;4.18;;;3.38;;
72493;SDS011;60520;49.182;-0.348;2024-01-15T01:26:37;5.60;;;3.50;;
72493;SDS011;60520;49.182;-0.348;2024-01-15T01:29:04;5.28;;;3.40;;
72493;SDS011;60520;49.182;-0.348;2024-01-15T01:31:32;4.47;;;3.42;;
72493;SDS011;60520;49.182;-0.348;2024-01-15T01:33:59;4.25;;;3.35;;
72493;SDS011;60520;49.182;-0.348;2024-01-15T01:36:26;5.78;;;3.45;;
72493;SDS011;60520;49.182;-0.348;2024-01-15T01:38:53;5.93;;;3.75;;
72493;SDS011;60520;49.182;-0.348;2024-01-15T01:41:22;4.47;;;3.42;;
72493;SDS011;60520;49.182;-0.348;2024-01-15T01:43:49;5.03;;;3.47;;
72493;SDS011;60520;49.182;-0.348;2024-01-15T01:46:16;3.90;;;3.22;;
72493;SDS011;60520;49.182;-0.348;2024-01-15T01:48:43;5.32;;;3.55;;
72493;SDS011;60520;49.182;-0.348;2024-01-15T01:51:10;5.63;;;3.45;;
72493;SDS011;60520;49.182;-0.348;2024-01-15T01:53:38;4.40;;;3.45;;
72493;SDS011;60520;49.182;-0.348;2024-01-15T01:56:05;5.55;;;3.45;;
72493;SDS011;60520;49.182;-0.348;2024-01-15T01:58:34;4.40;;;3.30;;
72493;SDS011;60520;49.182;-0.348;2024-01-15T02:01:01;4.03;;;3.55;;
72493;SDS011;60520;49.182;-0.348;2024-01-15T02:03:29;4.63;;;3.40;;
72493;SDS011;60520;49.182;-0.348;2024-01-15T02:05:57;4.70;;;3.40;;
72493;SDS011;60520;49.182;-0.348;2024-01-15T02:08:24;4.28;;;3.33;;
72493;SDS011;60520;49.182;-0.348;2024-01-15T02:10:51;3.67;;;2.80;;
72493;SDS011;60520;49.182;-0.348;2024-01-15T02:13:19;4.60;;;3.60;;
72493;SDS011;60520;49.182;-0.348;2024-01-15T02:15:48;4.30;;;3.10;;
72493;SDS011;60520;49.182;-0.348;2024-01-15T02:18:15;5.32;;;3.80;;
72493;SDS011;60520;49.182;-0.348;2024-01-15T02:20:42;3.85;;;3.10;;
72493;SDS011;60520;49.182;-0.348;2024-01-15T02:23:12;5.70;;;3.80;;
72493;SDS011;60520;49.182;-0.348;2024-01-15T02:25:39;4.40;;;3.53;;
72493;SDS011;60520;49.182;-0.348;2024-01-15T02:28:07;6.38;;;3.72;;
72493;SDS011;60520;49.182;-0.348;2024-01-15T02:30:36;5.18;;;3.70;;
72493;SDS011;60520;49.182;-0.348;2024-01-15T02:33:04;4.78;;;3.22;;
72493;SDS011;60520;49.182;-0.348;2024-01-15T02:35:32;3.92;;;3.22;;
72493;SDS011;60520;49.182;-0.348;2024-01-15T02:37:59;4.10;;;3.20;;
72493;SDS011;60520;49.182;-0.348;2024-01-15T02:40:27;5.38;;;3.50;;
72493;SDS011;60520;49.182;-0.348;2024-01-15T02:42:55;3.88;;;3.10;;
72493;SDS011;60520;49.182;-0.348;2024-01-15T02:45:22;5.65;;;3.30;;
72493;SDS011;60520;49.182;-0.348;2024-01-15T02:47:49;4.47;;;3.38;;
72493;SDS011;60520;49.182;-0.348;2024-01-15T02:50:17;4.78;;;3.35;;
72493;SDS011;60520;49.182;-0.348;2024-01-15T02:52:44;4.43;;;3.25;;
72493;SDS011;60520;49.182;-0.348;2024-01-15T02:55:11;5.70;;;3.50;;
72493;SDS011;60520;49.182;-0.348;2024-01-15T02:57:39;4.88;;;3.53;;
72493;SDS011;60520;49.182;-0.348;2024-01-15T03:00:07;5.07;;;3.45;;
72493;SDS011;60520;49.182;-0.348;2024-01-15T03:02:37;4.68;;;3.22;;
72493;SDS011;60520;49.182;-0.348;2024-01-15T03:05:05;4.90;;;3.30;;
72493;SDS011;60520;49.182;-0.348;2024-01-15T03:07:32;4.65;;;3.30;;
72493;SDS011;60520;49.182;-0.348;2024-01-15T03:10:00;5.00;;;3.50;;
72493;SDS011;60520;49.182;-0.348;2024-01-15T03:12:27;4.60;;;3.38;;
72493;SDS011;60520;49.182;-0.348;2024-01-15T03:14:55;5.57;;;3.85;;
72493;SDS011;60520;49.182;-0.348;2024-01-15T03:17:22;4.78;;;3.10;;
72493;SDS011;60520;49.182;-0.348;2024-01-15T03:19:50;5.18;;;3.10;;
72493;SDS011;60520;49.182;-0.348;2024-01-15T03:22:17;4.57;;;3.28;;
72493;SDS011;60520;49.182;-0.348;2024-01-15T03:24:44;4.43;;;3.00;;
72493;SDS011;60520;49.182;-0.348;2024-01-15T03:27:11;5.03;;;3.58;;
72493;SDS011;60520;49.182;-0.348;2024-01-15T03:29:39;4.10;;;2.97;;
72493;SDS011;60520;49.182;-0.348;2024-01-15T03:32:07;3.65;;;2.85;;
72493;SDS011;60520;49.182;-0.348;2024-01-15T03:34:35;4.53;;;3.45;;
72493;SDS011;60520;49.182;-0.348;2024-01-15T03:37:02;3.97;;;3.10;;
72493;SDS011;60520;49.182;-0.348;2024-01-15T03:39:29;4.90;;;3.50;;
72493;SDS011;60520;49.182;-0.348;2024-01-15T03:41:57;3.65;;;3.08;;
72493;SDS011;60520;49.182;-0.348;2024-01-15T03:44:24;5.28;;;3.28;;
72493;SDS011;60520;49.182;-0.348;2024-01-15T03:46:51;4.10;;;3.33;;
72493;SDS011;60520;49.182;-0.348;2024-01-15T03:49:19;3.67;;;2.92;;
72493;SDS011;60520;49.182;-0.348;2024-01-15T03:51:46;4.95;;;3.20;;
72493;SDS011;60520;49.182;-0.348;2024-01-15T03:54:14;4.70;;;3.20;;
72493;SDS011;60520;49.182;-0.348;2024-01-15T03:56:41;5.35;;;3.63;;
72493;SDS011;60520;49.182;-0.348;2024-01-15T03:59:08;4.85;;;3.30;;
72493;SDS011;60520;49.182;-0.348;2024-01-15T04:01:35;4.03;;;3.13;;
72493;SDS011;60520;49.182;-0.348;2024-01-15T04:04:02;3.60;;;3.20;;
72493;SDS011;60520;49.182;-0.348;2024-01-15T04:06:31;4.78;;;3.60;;
72493;SDS011;60520;49.182;-0.348;2024-01-15T04:08:58;4.22;;;3.05;;
72493;SDS011;60520;49.182;-0.348;2024-01-15T04:11:24;4.03;;;3.33;;
72493;SDS011;60520;49.182;-0.348;2024-01-15T04:13:51;5.20;;;3.38;;
72493;SDS011;60520;49.182;-0.348;2024-01-15T04:16:18;3.90;;;2.97;;
72493;SDS011;60520;49.182;-0.348;2024-01-15T04:18:46;4.13;;;3.17;;
72493;SDS011;60520;49.182;-0.348;2024-01-15T04:21:13;4.35;;;3.35;;
72493;SDS011;60520;49.182;-0.348;2024-01-15T04:23:41;3.83;;;3.05;;
72493;SDS011;60520;49.182;-0.348;2024-01-15T04:26:09;4.15;;;2.90;;
72493;SDS011;60520;49.182;-0.348;2024-01-15T04:28:36;4.40;;;3.47;;
72493;SDS011;60520;49.182;-0.348;2024-01-15T04:31:03;4.75;;;3.35;;
72493;SDS011;60520;49.182;-0.348;2024-01-15T04:33:30;4.05;;;3.03;;
72493;SDS011;60520;49.182;-0.348;2024-01-15T04:36:00;3.92;;;3.05;;
72493;SDS011;60520;49.182;-0.348;2024-01-15T04:38:28;3.70;;;3.13;;
72493;SDS011;60520;49.182;-0.348;2024-01-15T04:40:56;3.65;;;3.10;;
72493;SDS011;60520;49.182;-0.348;2024-01-15T04:43:23;4.28;;;3.28;;
72493;SDS011;60520;49.182;-0.348;2024-01-15T04:45:50;4.80;;;3.40;;
72493;SDS011;60520;49.182;-0.348;2024-01-15T04:48:17;4.55;;;3.08;;
72493;SDS011;60520;49.182;-0.348;2024-01-15T04:50:45;3.58;;;3.13;;
72493;SDS011;60520;49.182;-0.348;2024-01-15T04:53:13;3.72;;;3.08;;
72493;SDS011;60520;49.182;-0.348;2024-01-15T04:55:40;4.15;;;2.88;;
72493;SDS011;60520;49.182;-0.348;2024-01-15T04:58:09;3.88;;;2.85;;
72493;SDS011;60520;49.182;-0.348;2024-01-15T05:00:36;4.07;;;3.00;;
72493;SDS011;60520;49.182;-0.348;2024-01-15T05:03:03;3.95;;;2.97;;
72493;SDS011;60520;49.182;-0.348;2024-01-15T05:05:30;4.97;;;3.15;;
72493;SDS011;60520;49.182;-0.348;2024-01-15T05:07:57;5.03;;;3.10;;
72493;SDS011;60520;49.182;-0.348;2024-01-15T05:10:25;4.70;;;3.00;;
72493;SDS011;60520;49.182;-0.348;2024-01-15T05:12:52;4.00;;;2.88;;
72493;SDS011;60520;49.182;-0.348;2024-01-15T05:15:20;4.07;;;2.90;;
72493;SDS011;60520;49.182;-0.348;2024-01-15T05:17:47;3.42;;;2.83;;
72493;SDS011;60520;49.182;-0.348;2024-01-15T05:20:15;3.95;;;2.85;;
72493;SDS011;60520;49.182;-0.348;2024-01-15T05:22:42;5.15;;;2.90;;
72493;SDS011;60520;49.182;-0.348;2024-01-15T05:25:09;3.85;;;2.72;;
72493;SDS011;60520;49.182;-0.348;2024-01-15T05:27:36;4.28;;;3.03;;
72493;SDS011;60520;49.182;-0.348;2024-01-15T05:30:04;4.38;;;2.95;;
72493;SDS011;60520;49.182;-0.348;2024-01-15T05:32:33;3.70;;;2.88;;
72493;SDS011;60520;49.182;-0.348;2024-01-15T05:35:00;3.83;;;2.83;;
72493;SDS011;60520;49.182;-0.348;2024-01-15T05:37:27;3.63;;;2.80;;
72493;SDS011;60520;49.182;-0.348;2024-01-15T05:39:54;4.60;;;3.13;;
72493;SDS011;60520;49.182;-0.348;2024-01-15T05:42:21;3.90;;;2.83;;
72493;SDS011;60520;49.182;-0.348;2024-01-15T05:44:48;4.22;;;2.75;;
72493;SDS011;60520;49.182;-0.348;2024-01-15T05:47:15;4.13;;;2.72;;
72493;SDS011;60520;49.182;-0.348;2024-01-15T05:49:45;4.65;;;3.00;;
72493;SDS011;60520;49.182;-0.348;2024-01-15T05:52:12;3.42;;;2.70;;
72493;SDS011;60520;49.182;-0.348;2024-01-15T05:54:39;4.72;;;3.17;;
72493;SDS011;60520;49.182;-0.348;2024-01-15T05:57:06;4.03;;;2.83;;
72493;SDS011;60520;49.182;-0.348;2024-01-15T05:59:33;4.10;;;2.88;;
72493;SDS011;60520;49.182;-0.348;2024-01-15T06:02:01;3.33;;;2.47;;
72493;SDS011;60520;49.182;-0.348;2024-01-15T06:04:28;4.40;;;3.10;;
72493;SDS011;60520;49.182;-0.348;2024-01-15T06:06:56;3.75;;;2.75;;
72493;SDS011;60520;49.182;-0.348;2024-01-15T06:09:24;4.13;;;3.20;;
72493;SDS011;60520;49.182;-0.348;2024-01-15T06:11:51;3.55;;;2.75;;
72493;SDS011;60520;49.182;-0.348;2024-01-15T06:14:18;3.72;;;2.83;;
72493;SDS011;60520;49.182;-0.348;2024-01-15T06:16:45;3.67;;;2.67;;
72493;SDS011;60520;49.182;-0.348;2024-01-15T06:19:12;2.95;;;2.50;;
72493;SDS011;60520;49.182;-0.348;2024-01-15T06:21:39;3.53;;;2.70;;
72493;SDS011;60520;49.182;-0.348;2024-01-15T06:24:08;4.40;;;3.00;;
72493;SDS011;60520;49.182;-0.348;2024-01-15T06:26:35;3.72;;;2.90;;
72493;SDS011;60520;49.182;-0.348;2024-01-15T06:29:02;4.38;;;2.70;;
72493;SDS011;60520;49.182;-0.348;2024-01-15T06:31:29;3.40;;;2.60;;
72493;SDS011;60520;49.182;-0.348;2024-01-15T06:33:56;4.38;;;3.05;;
72493;SDS011;60520;49.182;-0.348;2024-01-15T06:36:23;5.80;;;3.08;;
72493;SDS011;60520;49.182;-0.348;2024-01-15T06:38:51;4.93;;;2.90;;
72493;SDS011;60520;49.182;-0.348;2024-01-15T06:41:19;4.53;;;2.50;;
72493;SDS011;60520;49.182;-0.348;2024-01-15T06:43:46;2.97;;;2.67;;
72493;SDS011;60520;49.182;-0.348;2024-01-15T06:46:19;3.35;;;2.47;;
72493;SDS011;60520;49.182;-0.348;2024-01-15T06:48:46;4.63;;;2.70;;
72493;SDS011;60520;49.182;-0.348;2024-01-15T06:51:13;3.95;;;2.75;;
72493;SDS011;60520;49.182;-0.348;2024-01-15T06:53:40;3.78;;;2.83;;
72493;SDS011;60520;49.182;-0.348;2024-01-15T06:56:07;3.60;;;2.67;;
72493;SDS011;60520;49.182;-0.348;2024-01-15T06:58:36;3.13;;;2.65;;
72493;SDS011;60520;49.182;-0.348;2024-01-15T07:01:03;3.22;;;2.58;;
72493;SDS011;60520;49.182;-0.348;2024-01-15T07:03:31;4.70;;;3.15;;
72493;SDS011;60520;49.182;-0.348;2024-01-15T07:05:58;3.35;;;2.50;;
72493;SDS011;60520;49.182;-0.348;2024-01-15T07:08:25;4.10;;;2.63;;
72493;SDS011;60520;49.182;-0.348;2024-01-15T07:10:52;3.47;;;2.58;;
72493;SDS011;60520;49.182;-0.348;2024-01-15T07:13:19;3.30;;;2.42;;
72493;SDS011;60520;49.182;-0.348;2024-01-15T07:15:48;4.07;;;2.75;;
72493;SDS011;60520;49.182;-0.348;2024-01-15T07:18:15;4.30;;;2.70;;
72493;SDS011;60520;49.182;-0.348;2024-01-15T07:20:42;3.42;;;2.53;;
72493;SDS011;60520;49.182;-0.348;2024-01-15T07:23:09;2.75;;;2.25;;
72493;SDS011;60520;49.182;-0.348;2024-01-15T07:25:37;3.72;;;2.40;;
72493;SDS011;60520;49.182;-0.348;2024-01-15T07:28:04;3.83;;;2.88;;
72493;SDS011;60520;49.182;-0.348;2024-01-15T07:30:31;2.97;;;2.50;;
72493;SDS011;60520;49.182;-0.348;2024-01-15T07:33:00;3.10;;;2.42;;
72493;SDS011;60520;49.182;-0.348;2024-01-15T07:35:29;3.30;;;2.50;;
72493;SDS011;60520;49.182;-0.348;2024-01-15T07:37:56;3.28;;;2.65;;
72493;SDS011;60520;49.182;-0.348;2024-01-15T07:40:23;8.20;;;2.53;;
72493;SDS011;60520;49.182;-0.348;2024-01-15T07:42:51;10.27;;;2.55;;
72493;SDS011;60520;49.182;-0.348;2024-01-15T07:45:18;27.13;;;4.05;;
72493;SDS011;60520;49.182;-0.348;2024-01-15T07:47:46;20.92;;;4.13;;
72493;SDS011;60520;49.182;-0.348;2024-01-15T07:50:15;33.85;;;4.45;;
72493;SDS011;60520;49.182;-0.348;2024-01-15T07:52:42;31.95;;;3.90;;
72493;SDS011;60520;49.182;-0.348;2024-01-15T07:55:09;31.10;;;4.13;;
72493;SDS011;60520;49.182;-0.348;2024-01-15T07:57:37;27.98;;;3.55;;
72493;SDS011;60520;49.182;-0.348;2024-01-15T08:00:04;22.05;;;3.58;;
72493;SDS011;60520;49.182;-0.348;2024-01-15T08:02:31;32.05;;;4.05;;
72493;SDS011;60520;49.182;-0.348;2024-01-15T08:04:58;25.35;;;3.97;;
72493;SDS011;60520;49.182;-0.348;2024-01-15T08:07:27;16.45;;;3.38;;
72493;SDS011;60520;49.182;-0.348;2024-01-15T08:09:54;17.75;;;3.65;;
72493;SDS011;60520;49.182;-0.348;2024-01-15T08:12:21;11.68;;;3.40;;
72493;SDS011;60520;49.182;-0.348;2024-01-15T08:14:48;26.40;;;3.85;;
72493;SDS011;60520;49.182;-0.348;2024-01-15T08:17:15;26.65;;;3.97;;
72493;SDS011;60520;49.182;-0.348;2024-01-15T08:19:43;18.30;;;3.28;;
72493;SDS011;60520;49.182;-0.348;2024-01-15T08:22:11;19.25;;;3.30;;
72493;SDS011;60520;49.182;-0.348;2024-01-15T08:24:40;19.58;;;3.72;;
72493;SDS011;60520;49.182;-0.348;2024-01-15T08:27:07;19.20;;;3.38;;
72493;SDS011;60520;49.182;-0.348;2024-01-15T08:29:34;16.02;;;3.83;;
72493;SDS011;60520;49.182;-0.348;2024-01-15T08:32:01;13.60;;;3.15;;
72493;SDS011;60520;49.182;-0.348;2024-01-15T08:34:28;18.98;;;3.20;;
72493;SDS011;60520;49.182;-0.348;2024-01-15T08:36:56;13.00;;;3.00;;
72493;SDS011;60520;49.182;-0.348;2024-01-15T08:39:23;17.48;;;3.20;;
72493;SDS011;60520;49.182;-0.348;2024-01-15T08:41:52;13.63;;;3.20;;
72493;SDS011;60520;49.182;-0.348;2024-01-15T08:44:19;12.93;;;2.97;;
72493;SDS011;60520;49.182;-0.348;2024-01-15T08:46:46;24.13;;;3.53;;
72493;SDS011;60520;49.182;-0.348;2024-01-15T08:49:13;10.45;;;2.92;;
72493;SDS011;60520;49.182;-0.348;2024-01-15T08:51:40;16.00;;;2.92;;
72493;SDS011;60520;49.182;-0.348;2024-01-15T08:54:07;8.70;;;3.20;;
72493;SDS011;60520;49.182;-0.348;2024-01-15T08:56:35;10.70;;;2.80;;
72493;SDS011;60520;49.182;-0.348;2024-01-15T08:59:03;15.45;;;3.08;;
72493;SDS011;60520;49.182;-0.348;2024-01-15T09:01:30;8.82;;;2.85;;
72493;SDS011;60520;49.182;-0.348;2024-01-15T09:03:57;11.20;;;3.55;;
72493;SDS011;60520;49.182;-0.348;2024-01-15T09:06:24;14.27;;;3.30;;
72493;SDS011;60520;49.182;-0.348;2024-01-15T09:08:52;8.05;;;2.40;;
72493;SDS011;60520;49.182;-0.348;2024-01-15T09:11:19;11.82;;;2.90;;
72493;SDS011;60520;49.182;-0.348;2024-01-15T09:13:46;17.27;;;3.08;;
72493;SDS011;60520;49.182;-0.348;2024-01-15T09:16:14;14.50;;;2.53;;
72493;SDS011;60520;49.182;-0.348;2024-01-15T09:18:41;7.32;;;2.33;;
72493;SDS011;60520;49.182;-0.348;2024-01-15T09:21:09;9.27;;;2.55;;
72493;SDS011;60520;49.182;-0.348;2024-01-15T09:23:36;14.80;;;2.75;;
72493;SDS011;60520;49.182;-0.348;2024-01-15T09:26:03;5.38;;;2.47;;
72493;SDS011;60520;49.182;-0.348;2024-01-15T09:28:30;10.15;;;2.38;;
72493;SDS011;60520;49.182;-0.348;2024-01-15T09:30:57;9.98;;;2.80;;
72493;SDS011;60520;49.182;-0.348;2024-01-15T09:33:26;7.63;;;2.20;;
72493;SDS011;60520;49.182;-0.348;2024-01-15T09:35:53;5.38;;;2.30;;
72493;SDS011;60520;49.182;-0.348;2024-01-15T09:38:20;6.78;;;2.42;;
72493;SDS011;60520;49.182;-0.348;2024-01-15T09:40:49;7.40;;;2.42;;
72493;SDS011;60520;49.182;-0.348;2024-01-15T09:43:17;9.25;;;2.70;;
72493;SDS011;60520;49.182;-0.348;2024-01-15T09:45:48;8.90;;;2.50;;
72493;SDS011;60520;49.182;-0.348;2024-01-15T09:48:16;8.20;;;2.58;;
72493;SDS011;60520;49.182;-0.348;2024-01-15T09:50:44;5.47;;;2.15;;
72493;SDS011;60520;49.182;-0.348;2024-01-15T09:53:12;8.00;;;2.28;;
72493;SDS011;60520;49.182;-0.348;2024-01-15T09:55:41;5.75;;;2.13;;
72493;SDS011;60520;49.182;-0.348;2024-01-15T09:58:09;8.52;;;2.33;;
72493;SDS011;60520;49.182;-0.348;2024-01-15T10:00:37;4.88;;;2.30;;
72493;SDS011;60520;49.182;-0.348;2024-01-15T10:03:06;7.07;;;2.10;;
72493;SDS011;60520;49.182;-0.348;2024-01-15T10:05:35;6.35;;;2.30;;
72493;SDS011;60520;49.182;-0.348;2024-01-15T10:08:04;7.82;;;2.53;;
72493;SDS011;60520;49.182;-0.348;2024-01-15T10:10:31;6.13;;;2.30;;
72493;SDS011;60520;49.182;-0.348;2024-01-15T10:12:58;6.63;;;2.13;;
72493;SDS011;60520;49.182;-0.348;2024-01-15T10:15:26;5.00;;;2.10;;
72493;SDS011;60520;49.182;-0.348;2024-01-15T10:17:53;4.43;;;2.30;;
72493;SDS011;60520;49.182;-0.348;2024-01-15T10:20:20;4.00;;;1.75;;
72493;SDS011;60520;49.182;-0.348;2024-01-15T10:22:48;6.03;;;2.25;;
72493;SDS011;60520;49.182;-0.348;2024-01-15T10:25:18;3.92;;;2.03;;
72493;SDS011;60520;49.182;-0.348;2024-01-15T10:27:58;3.90;;;1.92;;
72493;SDS011;60520;49.182;-0.348;2024-01-15T10:30:26;6.85;;;2.00;;
72493;SDS011;60520;49.182;-0.348;2024-01-15T10:32:57;5.22;;;2.15;;
72493;SDS011;60520;49.182;-0.348;2024-01-15T10:35:26;4.80;;;2.35;;
72493;SDS011;60520;49.182;-0.348;2024-01-15T10:37:54;4.75;;;1.88;;
72493;SDS011;60520;49.182;-0.348;2024-01-15T10:40:22;4.45;;;1.70;;
72493;SDS011;60520;49.182;-0.348;2024-01-15T10:42:50;7.75;;;2.10;;
72493;SDS011;60520;49.182;-0.348;2024-01-15T10:45:17;3.08;;;1.90;;
72493;SDS011;60520;49.182;-0.348;2024-01-15T10:47:44;3.97;;;1.83;;
72493;SDS011;60520;49.182;-0.348;2024-01-15T10:50:12;4.28;;;2.03;;
72493;SDS011;60520;49.182;-0.348;2024-01-15T10:52:39;3.65;;;1.75;;
72493;SDS011;60520;49.182;-0.348;2024-01-15T10:55:08;5.75;;;2.00;;
72493;SDS011;60520;49.182;-0.348;2024-01-15T10:57:37;6.05;;;1.90;;
72493;SDS011;60520;49.182;-0.348;2024-01-15T11:00:05;6.60;;;2.05;;
72493;SDS011;60520;49.182;-0.348;2024-01-15T11:02:34;5.18;;;1.80;;
72493;SDS011;60520;49.182;-0.348;2024-01-15T11:05:02;2.92;;;1.85;;
72493;SDS011;60520;49.182;-0.348;2024-01-15T11:07:30;3.08;;;1.70;;
72493;SDS011;60520;49.182;-0.348;2024-01-15T11:09:57;4.35;;;1.80;;
72493;SDS011;60520;49.182;-0.348;2024-01-15T11:12:24;2.72;;;1.70;;
72493;SDS011;60520;49.182;-0.348;2024-01-15T11:15:00;5.97;;;1.88;;
72493;SDS011;60520;49.182;-0.348;2024-01-15T11:17:30;4.57;;;1.77;;
72493;SDS011;60520;49.182;-0.348;2024-01-15T11:20:16;3.05;;;1.75;;
72493;SDS011;60520;49.182;-0.348;2024-01-15T11:22:48;5.65;;;1.77;;
72493;SDS011;60520;49.182;-0.348;2024-01-15T11:25:15;4.05;;;1.80;;
72493;SDS011;60520;49.182;-0.348;2024-01-15T11:27:45;2.85;;;1.55;;
72493;SDS011;60520;49.182;-0.348;2024-01-15T11:30:17;3.72;;;1.77;;
72493;SDS011;60520;49.182;-0.348;2024-01-15T11:32:45;4.75;;;1.88;;
72493;SDS011;60520;49.182;-0.348;2024-01-15T11:35:12;4.70;;;2.08;;
72493;SDS011;60520;49.182;-0.348;2024-01-15T11:37:58;3.85;;;1.50;;
72493;SDS011;60520;49.182;-0.348;2024-01-15T11:40:39;4.13;;;1.70;;
72493;SDS011;60520;49.182;-0.348;2024-01-15T11:43:07;4.20;;;2.13;;
72493;SDS011;60520;49.182;-0.348;2024-01-15T11:45:36;4.90;;;2.00;;
72493;SDS011;60520;49.182;-0.348;2024-01-15T11:48:11;6.85;;;1.92;;
72493;SDS011;60520;49.182;-0.348;2024-01-15T11:50:39;2.85;;;1.60;;
72493;SDS011;60520;49.182;-0.348;2024-01-15T11:53:16;3.53;;;1.80;;
72493;SDS011;60520;49.182;-0.348;2024-01-15T11:55:44;2.35;;;1.50;;
72493;SDS011;60520;49.182;-0.348;2024-01-15T11:58:13;5.78;;;1.70;;
72493;SDS011;60520;49.182;-0.348;2024-01-15T12:00:43;3.80;;;1.80;;
72493;SDS011;60520;49.182;-0.348;2024-01-15T12:03:11;3.92;;;1.60;;
72493;SDS011;60520;49.182;-0.348;2024-01-15T12:05:38;2.35;;;1.52;;
72493;SDS011;60520;49.182;-0.348;2024-01-15T12:08:07;2.55;;;1.33;;
72493;SDS011;60520;49.182;-0.348;2024-01-15T12:10:36;3.90;;;1.65;;
72493;SDS011;60520;49.182;-0.348;2024-01-15T12:13:04;2.97;;;1.63;;
72493;SDS011;60520;49.182;-0.348;2024-01-15T12:15:32;4.47;;;1.65;;
72493;SDS011;60520;49.182;-0.348;2024-01-15T12:18:01;2.97;;;1.50;;
72493;SDS011;60520;49.182;-0.348;2024-01-15T12:20:29;2.83;;;1.60;;
72493;SDS011;60520;49.182;-0.348;2024-01-15T12:22:56;3.17;;;1.42;;
72493;SDS011;60520;49.182;-0.348;2024-01-15T12:25:24;2.20;;;1.30;;
72493;SDS011;60520;49.182;-0.348;2024-01-15T12:27:52;3.50;;;1.35;;
72493;SDS011;60520;49.182;-0.348;2024-01-15T12:30:20;2.58;;;1.60;;
72493;SDS011;60520;49.182;-0.348;2024-01-15T12:32:47;1.98;;;1.23;;
72493;SDS011;60520;49.182;-0.348;2024-01-15T12:35:16;2.70;;;1.30;;
72493;SDS011;60520;49.182;-0.348;2024-01-15T12:37:43;4.47;;;1.58;;
72493;SDS011;60520;49.182;-0.348;2024-01-15T12:40:11;3.38;;;1.52;;
72493;SDS011;60520;49.182;-0.348;2024-01-15T12:42:39;2.30;;;1.20;;
72493;SDS011;60520;49.182;-0.348;2024-01-15T12:45:08;3.38;;;1.50;;
72493;SDS011;60520;49.182;-0.348;2024-01-15T12:47:35;2.58;;;1.38;;
72493;SDS011;60520;49.182;-0.348;2024-01-15T12:50:05;3.70;;;1.50;;
72493;SDS011;60520;49.182;-0.348;2024-01-15T12:52:34;3.40;;;1.38;;
72493;SDS011;60520;49.182;-0.348;2024-01-15T12:55:03;4.80;;;1.38;;
72493;SDS011;60520;49.182;-0.348;2024-01-15T12:57:30;3.85;;;1.60;;
72493;SDS011;60520;49.182;-0.348;2024-01-15T12:59:57;3.22;;;1.17;;
72493;SDS011;60520;49.182;-0.348;2024-01-15T13:02:24;3.63;;;1.10;;
72493;SDS011;60520;49.182;-0.348;2024-01-15T13:04:51;1.95;;;1.17;;
72493;SDS011;60520;49.182;-0.348;2024-01-15T13:07:19;1.75;;;0.98;;
72493;SDS011;60520;49.182;-0.348;2024-01-15T13:09:48;2.33;;;1.10;;
72493;SDS011;60520;49.182;-0.348;2024-01-15T13:12:18;2.20;;;1.42;;
72493;SDS011;60520;49.182;-0.348;2024-01-15T13:14:45;2.22;;;1.20;;
72493;SDS011;60520;49.182;-0.348;2024-01-15T13:17:13;2.15;;;1.15;;
72493;SDS011;60520;49.182;-0.348;2024-01-15T13:19:40;1.52;;;1.00;;
72493;SDS011;60520;49.182;-0.348;2024-01-15T13:22:07;2.22;;;1.13;;
72493;SDS011;60520;49.182;-0.348;2024-01-15T13:24:35;2.38;;;1.00;;
72493;SDS011;60520;49.182;-0.348;2024-01-15T13:27:04;2.38;;;1.00;;
72493;SDS011;60520;49.182;-0.348;2024-01-15T13:29:32;2.85;;;1.10;;
72493;SDS011;60520;49.182;-0.348;2024-01-15T13:31:59;2.30;;;1.17;;
72493;SDS011;60520;49.182;-0.348;2024-01-15T13:34:26;3.22;;;1.05;;
72493;SDS011;60520;49.182;-0.348;2024-01-15T13:36:54;1.83;;;1.20;;
72493;SDS011;60520;49.182;-0.348;2024-01-15T13:39:21;3.13;;;1.00;;
72493;SDS011;60520;49.182;-0.348;2024-01-15T13:41:48;1.75;;;1.00;;
72493;SDS011;60520;49.182;-0.348;2024-01-15T13:44:17;1.85;;;0.90;;
72493;SDS011;60520;49.182;-0.348;2024-01-15T13:46:45;1.67;;;0.90;;
72493;SDS011;60520;49.182;-0.348;2024-01-15T13:49:12;1.95;;;0.90;;
72493;SDS011;60520;49.182;-0.348;2024-01-15T13:51:39;5.38;;;0.95;;
72493;SDS011;60520;49.182;-0.348;2024-01-15T13:54:06;4.13;;;1.08;;
72493;SDS011;60520;49.182;-0.348;2024-01-15T13:56:34;3.50;;;1.10;;
72493;SDS011;60520;49.182;-0.348;2024-01-15T13:59:01;4.65;;;1.50;;
72493;SDS011;60520;49.182;-0.348;2024-01-15T14:01:31;2.33;;;1.08;;
72493;SDS011;60520;49.182;-0.348;2024-01-15T14:04:00;2.30;;;0.90;;
72493;SDS011;60520;49.182;-0.348;2024-01-15T14:06:27;4.45;;;0.90;;
72493;SDS011;60520;49.182;-0.348;2024-01-15T14:08:55;3.35;;;0.80;;
72493;SDS011;60520;49.182;-0.348;2024-01-15T14:11:22;4.85;;;0.82;;
72493;SDS011;60520;49.182;-0.348;2024-01-15T14:13:49;4.70;;;1.10;;
72493;SDS011;60520;49.182;-0.348;2024-01-15T14:16:16;4.15;;;1.20;;
72493;SDS011;60520;49.182;-0.348;2024-01-15T14:18:45;3.72;;;1.10;;
72493;SDS011;60520;49.182;-0.348;2024-01-15T14:21:12;1.88;;;0.90;;
72493;SDS011;60520;49.182;-0.348;2024-01-15T14:23:39;3.00;;;1.02;;
72493;SDS011;60520;49.182;-0.348;2024-01-15T14:26:06;3.63;;;0.90;;
72493;SDS011;60520;49.182;-0.348;2024-01-15T14:28:34;2.78;;;0.93;;
72493;SDS011;60520;49.182;-0.348;2024-01-15T14:31:01;6.75;;;0.90;;
72493;SDS011;60520;49.182;-0.348;2024-01-15T14:33:30;4.18;;;0.93;;
72493;SDS011;60520;49.182;-0.348;2024-01-15T14:35:59;5.10;;;0.90;;